sensor_id;sensor_type;location;lat;lon;timestamp;P1;durP1;ratioP1;P2;durP2;ratioP2
31347;SDS011;21711;49.708;18.568;2024-01-15T00:01:16;5.67;;;2.33;;
31347;SDS011;21711;49.708;18.568;2024-01-15T00:03:44;4.37;;;1.87;;
31347;SDS011;21711;49.708;18.568;2024-01-15T00:06:13;5.38;;;1.70;;
31347;SDS011;21711;49.708;18.568;2024-01-15T00:08:41;4.73;;;1.73;;
31347;SDS011;21711;49.708;18.568;2024-01-15T00:11:08;5.07;;;2.05;;
31347;SDS011;21711;49.708;18.568;2024-01-15T00:13:35;5.07;;;2.13;;
31347;SDS011;21711;49.708;18.568;2024-01-15T00:16:04;5.10;;;1.77;;
31347;SDS011;21711;49.708;18.568;2024-01-15T00:18:31;4.95;;;1.88;;
31347;SDS011;21711;49.708;18.568;2024-01-15T00:20:59;7.18;;;2.00;;
31347;SDS011;21711;49.708;18.568;2024-01-15T00:23:26;5.03;;;2.05;;
31347;SDS011;21711;49.708;18.568;2024-01-15T00:25:53;4.53;;;1.97;;
31347;SDS011;21711;49.708;18.568;2024-01-15T00:28:21;6.20;;;2.03;;
31347;SDS011;21711;49.708;18.568;2024-01-15T00:30:48;4.80;;;1.60;;
31347;SDS011;21711;49.708;18.568;2024-01-15T00:33:15;5.73;;;1.73;;
31347;SDS011;21711;49.708;18.568;2024-01-15T00:35:43;3.80;;;1.40;;
31347;SDS011;21711;49.708;18.568;2024-01-15T00:38:10;4.40;;;1.43;;
31347;SDS011;21711;49.708;18.568;2024-01-15T00:40:38;3.00;;;0.93;;
31347;SDS011;21711;49.708;18.568;2024-01-15T00:43:06;4.53;;;1.60;;
31347;SDS011;21711;49.708;18.568;2024-01-15T00:45:34;3.40;;;1.50;;
31347;SDS011;21711;49.708;18.568;2024-01-15T00:48:01;3.07;;;1.30;;
31347;SDS011;21711;49.708;18.568;2024-01-15T00:50:29;6.28;;;1.27;;
31347;SDS011;21711;49.708;18.568;2024-01-15T00:52:57;3.83;;;1.58;;
31347;SDS011;21711;49.708;18.568;2024-01-15T00:55:25;3.13;;;0.80;;
31347;SDS011;21711;49.708;18.568;2024-01-15T00:57:52;3.07;;;1.13;;
31347;SDS011;21711;49.708;18.568;2024-01-15T01:00:19;2.43;;;1.17;;
31347;SDS011;21711;49.708;18.568;2024-01-15T01:02:47;2.92;;;1.33;;
31347;SDS011;21711;49.708;18.568;2024-01-15T01:05:14;3.03;;;1.08;;
31347;SDS011;21711;49.708;18.568;2024-01-15T01:07:41;3.20;;;0.90;;
31347;SDS011;21711;49.708;18.568;2024-01-15T01:10:09;2.00;;;1.10;;
31347;SDS011;21711;49.708;18.568;2024-01-15T01:12:37;4.30;;;1.10;;
31347;SDS011;21711;49.708;18.568;2024-01-15T01:15:04;2.47;;;0.93;;
31347;SDS011;21711;49.708;18.568;2024-01-15T01:17:32;3.30;;;0.98;;
31347;SDS011;21711;49.708;18.568;2024-01-15T01:20:00;2.67;;;0.93;;
31347;SDS011;21711;49.708;18.568;2024-01-15T01:22:31;3.17;;;1.10;;
31347;SDS011;21711;49.708;18.568;2024-01-15T01:24:58;3.50;;;0.93;;
31347;SDS011;21711;49.708;18.568;2024-01-15T01:27:25;2.63;;;0.93;;
31347;SDS011;21711;49.708;18.568;2024-01-15T01:29:53;1.80;;;0.83;;
31347;SDS011;21711;49.708;18.568;2024-01-15T01:32:20;2.63;;;1.17;;
31347;SDS011;21711;49.708;18.568;2024-01-15T01:34:47;4.50;;;1.20;;
31347;SDS011;21711;49.708;18.568;2024-01-15T01:37:15;3.05;;;1.00;;
31347;SDS011;21711;49.708;18.568;2024-01-15T01:39:42;1.98;;;0.82;;
31347;SDS011;21711;49.708;18.568;2024-01-15T01:42:11;2.07;;;0.70;;
31347;SDS011;21711;49.708;18.568;2024-01-15T01:44:39;4.65;;;0.93;;
31347;SDS011;21711;49.708;18.568;2024-01-15T01:47:06;2.13;;;0.82;;
31347;SDS011;21711;49.708;18.568;2024-01-15T01:49:34;3.42;;;0.93;;
31347;SDS011;21711;49.708;18.568;2024-01-15T01:52:04;2.45;;;1.10;;
31347;SDS011;21711;49.708;18.568;2024-01-15T01:54:36;3.95;;;1.15;;
31347;SDS011;21711;49.708;18.568;2024-01-15T01:57:05;1.60;;;0.70;;
31347;SDS011;21711;49.708;18.568;2024-01-15T01:59:34;2.87;;;0.90;;
31347;SDS011;21711;49.708;18.568;2024-01-15T02:02:02;3.23;;;0.70;;
31347;SDS011;21711;49.708;18.568;2024-01-15T02:04:31;1.85;;;0.82;;
31347;SDS011;21711;49.708;18.568;2024-01-15T02:06:59;3.38;;;0.93;;
31347;SDS011;21711;49.708;18.568;2024-01-15T02:09:27;1.90;;;0.93;;
31347;SDS011;21711;49.708;18.568;2024-01-15T02:11:54;2.17;;;0.70;;
31347;SDS011;21711;49.708;18.568;2024-01-15T02:14:22;1.77;;;0.60;;
31347;SDS011;21711;49.708;18.568;2024-01-15T02:16:49;1.77;;;0.67;;
31347;SDS011;21711;49.708;18.568;2024-01-15T02:19:17;1.97;;;0.87;;
31347;SDS011;21711;49.708;18.568;2024-01-15T02:21:45;2.17;;;0.60;;
31347;SDS011;21711;49.708;18.568;2024-01-15T02:24:12;3.13;;;1.20;;
31347;SDS011;21711;49.708;18.568;2024-01-15T02:26:41;1.60;;;0.80;;
31347;SDS011;21711;49.708;18.568;2024-01-15T02:29:09;3.20;;;0.85;;
31347;SDS011;21711;49.708;18.568;2024-01-15T02:31:37;2.00;;;0.65;;
31347;SDS011;21711;49.708;18.568;2024-01-15T02:34:06;1.97;;;0.40;;
31347;SDS011;21711;49.708;18.568;2024-01-15T02:36:33;1.42;;;0.40;;
31347;SDS011;21711;49.708;18.568;2024-01-15T02:39:00;0.90;;;0.40;;
31347;SDS011;21711;49.708;18.568;2024-01-15T02:41:28;2.60;;;0.70;;
31347;SDS011;21711;49.708;18.568;2024-01-15T02:43:55;1.97;;;0.50;;
31347;SDS011;21711;49.708;18.568;2024-01-15T02:46:22;1.93;;;0.73;;
31347;SDS011;21711;49.708;18.568;2024-01-15T02:48:50;1.80;;;0.50;;
31347;SDS011;21711;49.708;18.568;2024-01-15T02:51:17;2.38;;;0.50;;
31347;SDS011;21711;49.708;18.568;2024-01-15T02:53:45;2.10;;;1.15;;
31347;SDS011;21711;49.708;18.568;2024-01-15T02:56:12;1.25;;;0.47;;
31347;SDS011;21711;49.708;18.568;2024-01-15T02:58:39;2.87;;;0.77;;
31347;SDS011;21711;49.708;18.568;2024-01-15T03:01:07;3.22;;;1.05;;
31347;SDS011;21711;49.708;18.568;2024-01-15T03:03:34;2.40;;;0.60;;
31347;SDS011;21711;49.708;18.568;2024-01-15T03:06:02;3.13;;;0.67;;
31347;SDS011;21711;49.708;18.568;2024-01-15T03:08:30;1.65;;;0.73;;
31347;SDS011;21711;49.708;18.568;2024-01-15T03:10:57;3.30;;;0.70;;
31347;SDS011;21711;49.708;18.568;2024-01-15T03:13:25;1.40;;;0.50;;
31347;SDS011;21711;49.708;18.568;2024-01-15T03:15:52;1.60;;;0.70;;
31347;SDS011;21711;49.708;18.568;2024-01-15T03:18:20;1.92;;;0.77;;
31347;SDS011;21711;49.708;18.568;2024-01-15T03:20:47;1.38;;;0.80;;
31347;SDS011;21711;49.708;18.568;2024-01-15T03:23:15;4.53;;;0.80;;
31347;SDS011;21711;49.708;18.568;2024-01-15T03:25:42;3.03;;;0.80;;
31347;SDS011;21711;49.708;18.568;2024-01-15T03:28:09;3.72;;;0.98;;
31347;SDS011;21711;49.708;18.568;2024-01-15T03:30:37;2.77;;;0.83;;
31347;SDS011;21711;49.708;18.568;2024-01-15T03:33:04;2.07;;;0.60;;
31347;SDS011;21711;49.708;18.568;2024-01-15T03:35:32;2.22;;;0.80;;
31347;SDS011;21711;49.708;18.568;2024-01-15T03:37:59;4.50;;;1.17;;
31347;SDS011;21711;49.708;18.568;2024-01-15T03:40:27;1.85;;;0.57;;
31347;SDS011;21711;49.708;18.568;2024-01-15T03:42:54;2.10;;;0.85;;
31347;SDS011;21711;49.708;18.568;2024-01-15T03:45:22;2.40;;;0.40;;
31347;SDS011;21711;49.708;18.568;2024-01-15T03:47:49;1.98;;;0.70;;
31347;SDS011;21711;49.708;18.568;2024-01-15T03:50:17;1.15;;;0.47;;
31347;SDS011;21711;49.708;18.568;2024-01-15T03:52:44;2.50;;;0.75;;
31347;SDS011;21711;49.708;18.568;2024-01-15T03:55:11;1.52;;;0.63;;
31347;SDS011;21711;49.708;18.568;2024-01-15T03:57:39;1.95;;;0.65;;
31347;SDS011;21711;49.708;18.568;2024-01-15T04:00:06;2.47;;;0.68;;
31347;SDS011;21711;49.708;18.568;2024-01-15T04:02:35;1.23;;;0.40;;
31347;SDS011;21711;49.708;18.568;2024-01-15T04:05:02;1.47;;;0.70;;
31347;SDS011;21711;49.708;18.568;2024-01-15T04:07:30;5.38;;;0.77;;
31347;SDS011;21711;49.708;18.568;2024-01-15T04:09:57;1.60;;;0.60;;
31347;SDS011;21711;49.708;18.568;2024-01-15T04:12:26;2.30;;;0.70;;
31347;SDS011;21711;49.708;18.568;2024-01-15T04:14:53;3.30;;;0.80;;
31347;SDS011;21711;49.708;18.568;2024-01-15T04:17:21;2.95;;;0.93;;
31347;SDS011;21711;49.708;18.568;2024-01-15T04:19:48;1.65;;;0.60;;
31347;SDS011;21711;49.708;18.568;2024-01-15T04:22:16;1.40;;;0.50;;
31347;SDS011;21711;49.708;18.568;2024-01-15T04:24:43;1.70;;;0.60;;
31347;SDS011;21711;49.708;18.568;2024-01-15T04:27:10;4.70;;;1.27;;
31347;SDS011;21711;49.708;18.568;2024-01-15T04:29:38;2.40;;;0.73;;
31347;SDS011;21711;49.708;18.568;2024-01-15T04:32:07;2.08;;;1.00;;
31347;SDS011;21711;49.708;18.568;2024-01-15T04:34:34;1.75;;;0.70;;
31347;SDS011;21711;49.708;18.568;2024-01-15T04:37:02;4.57;;;1.10;;
31347;SDS011;21711;49.708;18.568;2024-01-15T04:39:29;4.43;;;1.35;;
31347;SDS011;21711;49.708;18.568;2024-01-15T04:41:57;3.42;;;0.98;;
31347;SDS011;21711;49.708;18.568;2024-01-15T04:44:24;2.92;;;1.02;;
31347;SDS011;21711;49.708;18.568;2024-01-15T04:46:51;2.53;;;0.97;;
31347;SDS011;21711;49.708;18.568;2024-01-15T04:49:19;2.55;;;1.02;;
31347;SDS011;21711;49.708;18.568;2024-01-15T04:51:47;2.93;;;1.23;;
31347;SDS011;21711;49.708;18.568;2024-01-15T04:54:14;3.60;;;1.02;;
31347;SDS011;21711;49.708;18.568;2024-01-15T04:56:45;3.25;;;1.23;;
31347;SDS011;21711;49.708;18.568;2024-01-15T04:59:13;2.63;;;0.90;;
31347;SDS011;21711;49.708;18.568;2024-01-15T05:01:41;4.07;;;1.60;;
31347;SDS011;21711;49.708;18.568;2024-01-15T05:04:08;2.23;;;0.80;;
31347;SDS011;21711;49.708;18.568;2024-01-15T05:06:36;4.13;;;1.20;;
31347;SDS011;21711;49.708;18.568;2024-01-15T05:09:03;2.80;;;1.20;;
31347;SDS011;21711;49.708;18.568;2024-01-15T05:11:31;2.90;;;1.03;;
31347;SDS011;21711;49.708;18.568;2024-01-15T05:13:58;3.57;;;1.27;;
31347;SDS011;21711;49.708;18.568;2024-01-15T05:16:25;3.35;;;1.40;;
31347;SDS011;21711;49.708;18.568;2024-01-15T05:18:53;3.93;;;1.30;;
31347;SDS011;21711;49.708;18.568;2024-01-15T05:21:20;2.43;;;1.00;;
31347;SDS011;21711;49.708;18.568;2024-01-15T05:23:48;3.10;;;1.37;;
31347;SDS011;21711;49.708;18.568;2024-01-15T05:26:15;2.57;;;1.07;;
31347;SDS011;21711;49.708;18.568;2024-01-15T05:28:43;2.33;;;1.30;;
31347;SDS011;21711;49.708;18.568;2024-01-15T05:31:10;3.88;;;1.58;;
31347;SDS011;21711;49.708;18.568;2024-01-15T05:33:38;3.77;;;0.77;;
31347;SDS011;21711;49.708;18.568;2024-01-15T05:36:05;2.85;;;1.10;;
31347;SDS011;21711;49.708;18.568;2024-01-15T05:38:33;5.07;;;1.27;;
31347;SDS011;21711;49.708;18.568;2024-01-15T05:41:00;3.67;;;1.10;;
31347;SDS011;21711;49.708;18.568;2024-01-15T05:43:28;2.72;;;1.48;;
31347;SDS011;21711;49.708;18.568;2024-01-15T05:45:56;2.23;;;0.93;;
31347;SDS011;21711;49.708;18.568;2024-01-15T05:48:24;3.37;;;1.10;;
31347;SDS011;21711;49.708;18.568;2024-01-15T05:50:51;2.47;;;0.63;;
31347;SDS011;21711;49.708;18.568;2024-01-15T05:53:19;3.17;;;1.23;;
31347;SDS011;21711;49.708;18.568;2024-01-15T05:55:46;2.03;;;0.80;;
31347;SDS011;21711;49.708;18.568;2024-01-15T05:58:13;2.40;;;0.90;;
31347;SDS011;21711;49.708;18.568;2024-01-15T06:00:41;3.22;;;0.88;;
31347;SDS011;21711;49.708;18.568;2024-01-15T06:03:08;2.07;;;1.10;;
31347;SDS011;21711;49.708;18.568;2024-01-15T06:05:36;2.13;;;1.00;;
31347;SDS011;21711;49.708;18.568;2024-01-15T06:08:04;2.87;;;0.77;;
31347;SDS011;21711;49.708;18.568;2024-01-15T06:10:31;2.27;;;1.00;;
31347;SDS011;21711;49.708;18.568;2024-01-15T06:12:59;2.27;;;1.00;;
31347;SDS011;21711;49.708;18.568;2024-01-15T06:15:26;3.60;;;0.90;;
31347;SDS011;21711;49.708;18.568;2024-01-15T06:17:53;3.63;;;1.10;;
31347;SDS011;21711;49.708;18.568;2024-01-15T06:20:21;9.87;;;2.27;;
31347;SDS011;21711;49.708;18.568;2024-01-15T06:22:48;5.83;;;1.80;;
31347;SDS011;21711;49.708;18.568;2024-01-15T06:25:15;4.27;;;1.50;;
31347;SDS011;21711;49.708;18.568;2024-01-15T06:27:43;10.50;;;1.90;;
31347;SDS011;21711;49.708;18.568;2024-01-15T06:30:10;7.13;;;2.50;;
31347;SDS011;21711;49.708;18.568;2024-01-15T06:32:39;4.57;;;1.50;;
31347;SDS011;21711;49.708;18.568;2024-01-15T06:35:06;5.13;;;1.40;;
31347;SDS011;21711;49.708;18.568;2024-01-15T06:37:34;5.23;;;1.67;;
31347;SDS011;21711;49.708;18.568;2024-01-15T06:40:01;4.90;;;1.83;;
31347;SDS011;21711;49.708;18.568;2024-01-15T06:42:29;3.93;;;1.37;;
31347;SDS011;21711;49.708;18.568;2024-01-15T06:44:57;5.43;;;1.87;;
31347;SDS011;21711;49.708;18.568;2024-01-15T06:47:24;3.77;;;1.30;;
31347;SDS011;21711;49.708;18.568;2024-01-15T06:49:52;4.77;;;1.60;;
31347;SDS011;21711;49.708;18.568;2024-01-15T06:52:19;6.13;;;2.33;;
31347;SDS011;21711;49.708;18.568;2024-01-15T06:54:46;5.37;;;1.60;;
31347;SDS011;21711;49.708;18.568;2024-01-15T06:57:15;5.83;;;2.40;;
31347;SDS011;21711;49.708;18.568;2024-01-15T06:59:42;8.93;;;2.83;;
31347;SDS011;21711;49.708;18.568;2024-01-15T07:02:10;7.57;;;2.93;;
31347;SDS011;21711;49.708;18.568;2024-01-15T07:04:38;7.10;;;2.53;;
31347;SDS011;21711;49.708;18.568;2024-01-15T07:07:09;4.28;;;1.88;;
31347;SDS011;21711;49.708;18.568;2024-01-15T07:09:36;4.07;;;1.90;;
31347;SDS011;21711;49.708;18.568;2024-01-15T07:12:03;7.73;;;2.90;;
31347;SDS011;21711;49.708;18.568;2024-01-15T07:14:31;6.03;;;2.43;;
31347;SDS011;21711;49.708;18.568;2024-01-15T07:16:58;7.87;;;2.70;;
31347;SDS011;21711;49.708;18.568;2024-01-15T07:19:25;8.73;;;2.60;;
31347;SDS011;21711;49.708;18.568;2024-01-15T07:21:53;5.73;;;2.30;;
31347;SDS011;21711;49.708;18.568;2024-01-15T07:24:22;6.37;;;2.10;;
31347;SDS011;21711;49.708;18.568;2024-01-15T07:26:50;7.67;;;2.90;;
31347;SDS011;21711;49.708;18.568;2024-01-15T07:29:17;9.67;;;3.90;;
31347;SDS011;21711;49.708;18.568;2024-01-15T07:31:51;6.17;;;2.83;;
31347;SDS011;21711;49.708;18.568;2024-01-15T07:34:19;7.40;;;2.50;;
31347;SDS011;21711;49.708;18.568;2024-01-15T07:36:46;7.80;;;2.57;;
31347;SDS011;21711;49.708;18.568;2024-01-15T07:39:14;5.63;;;2.30;;
31347;SDS011;21711;49.708;18.568;2024-01-15T07:41:41;7.73;;;2.73;;
31347;SDS011;21711;49.708;18.568;2024-01-15T07:44:08;7.47;;;3.13;;
31347;SDS011;21711;49.708;18.568;2024-01-15T07:46:36;8.73;;;3.10;;
31347;SDS011;21711;49.708;18.568;2024-01-15T07:49:03;7.80;;;3.57;;
31347;SDS011;21711;49.708;18.568;2024-01-15T07:51:32;6.23;;;2.90;;
31347;SDS011;21711;49.708;18.568;2024-01-15T07:53:59;7.80;;;3.30;;
31347;SDS011;21711;49.708;18.568;2024-01-15T07:56:26;8.73;;;3.33;;
31347;SDS011;21711;49.708;18.568;2024-01-15T07:58:54;9.27;;;3.37;;
31347;SDS011;21711;49.708;18.568;2024-01-15T08:01:22;11.27;;;3.87;;
31347;SDS011;21711;49.708;18.568;2024-01-15T08:03:50;8.00;;;3.30;;
31347;SDS011;21711;49.708;18.568;2024-01-15T08:06:19;5.47;;;2.55;;
31347;SDS011;21711;49.708;18.568;2024-01-15T08:08:46;7.22;;;3.38;;
31347;SDS011;21711;49.708;18.568;2024-01-15T08:11:14;11.27;;;3.35;;
31347;SDS011;21711;49.708;18.568;2024-01-15T08:13:41;9.00;;;3.35;;
31347;SDS011;21711;49.708;18.568;2024-01-15T08:16:09;8.00;;;3.33;;
31347;SDS011;21711;49.708;18.568;2024-01-15T08:18:37;8.70;;;3.85;;
31347;SDS011;21711;49.708;18.568;2024-01-15T08:21:04;7.78;;;3.28;;
31347;SDS011;21711;49.708;18.568;2024-01-15T08:23:32;6.90;;;3.40;;
31347;SDS011;21711;49.708;18.568;2024-01-15T08:26:01;8.30;;;3.80;;
31347;SDS011;21711;49.708;18.568;2024-01-15T08:28:29;10.98;;;3.60;;
31347;SDS011;21711;49.708;18.568;2024-01-15T08:30:57;11.88;;;4.32;;
31347;SDS011;21711;49.708;18.568;2024-01-15T08:33:24;8.38;;;3.58;;
31347;SDS011;21711;49.708;18.568;2024-01-15T08:35:52;10.73;;;4.45;;
31347;SDS011;21711;49.708;18.568;2024-01-15T08:38:19;10.25;;;3.85;;
31347;SDS011;21711;49.708;18.568;2024-01-15T08:40:46;11.25;;;3.47;;
31347;SDS011;21711;49.708;18.568;2024-01-15T08:43:16;9.93;;;4.23;;
31347;SDS011;21711;49.708;18.568;2024-01-15T08:45:43;9.55;;;3.90;;
31347;SDS011;21711;49.708;18.568;2024-01-15T08:48:11;11.40;;;4.35;;
31347;SDS011;21711;49.708;18.568;2024-01-15T08:50:39;10.30;;;4.20;;
31347;SDS011;21711;49.708;18.568;2024-01-15T08:53:06;10.30;;;4.18;;
31347;SDS011;21711;49.708;18.568;2024-01-15T08:55:34;7.15;;;3.33;;
31347;SDS011;21711;49.708;18.568;2024-01-15T08:58:01;9.80;;;4.15;;
31347;SDS011;21711;49.708;18.568;2024-01-15T09:00:29;9.00;;;3.80;;
31347;SDS011;21711;49.708;18.568;2024-01-15T09:02:57;10.05;;;4.55;;
31347;SDS011;21711;49.708;18.568;2024-01-15T09:05:24;12.02;;;4.60;;
31347;SDS011;21711;49.708;18.568;2024-01-15T09:07:52;10.82;;;4.85;;
31347;SDS011;21711;49.708;18.568;2024-01-15T09:10:20;8.93;;;4.78;;
31347;SDS011;21711;49.708;18.568;2024-01-15T09:12:47;11.73;;;4.78;;
31347;SDS011;21711;49.708;18.568;2024-01-15T09:17:46;13.63;;;5.35;;
31347;SDS011;21711;49.708;18.568;2024-01-15T09:20:14;10.73;;;4.57;;
31347;SDS011;21711;49.708;18.568;2024-01-15T09:22:42;11.55;;;5.00;;
31347;SDS011;21711;49.708;18.568;2024-01-15T09:25:09;13.35;;;5.65;;
31347;SDS011;21711;49.708;18.568;2024-01-15T09:27:37;10.02;;;4.70;;
31347;SDS011;21711;49.708;18.568;2024-01-15T09:30:04;9.95;;;4.25;;
31347;SDS011;21711;49.708;18.568;2024-01-15T09:32:33;13.55;;;5.40;;
31347;SDS011;21711;49.708;18.568;2024-01-15T09:35:01;12.02;;;4.68;;
31347;SDS011;21711;49.708;18.568;2024-01-15T09:37:28;11.85;;;4.35;;
31347;SDS011;21711;49.708;18.568;2024-01-15T09:40:13;15.05;;;5.72;;
31347;SDS011;21711;49.708;18.568;2024-01-15T09:42:42;10.30;;;4.10;;
31347;SDS011;21711;49.708;18.568;2024-01-15T09:45:10;11.30;;;4.70;;
31347;SDS011;21711;49.708;18.568;2024-01-15T09:47:39;11.40;;;4.68;;
31347;SDS011;21711;49.708;18.568;2024-01-15T09:50:12;12.50;;;5.78;;
31347;SDS011;21711;49.708;18.568;2024-01-15T09:52:42;12.57;;;5.45;;
31347;SDS011;21711;49.708;18.568;2024-01-15T09:55:11;12.63;;;5.07;;
31347;SDS011;21711;49.708;18.568;2024-01-15T09:57:42;13.95;;;4.78;;
31347;SDS011;21711;49.708;18.568;2024-01-15T10:00:13;11.27;;;4.72;;
31347;SDS011;21711;49.708;18.568;2024-01-15T10:02:44;14.43;;;5.82;;
31347;SDS011;21711;49.708;18.568;2024-01-15T10:05:11;12.70;;;5.32;;
31347;SDS011;21711;49.708;18.568;2024-01-15T10:07:39;13.02;;;4.95;;
31347;SDS011;21711;49.708;18.568;2024-01-15T10:10:07;12.20;;;5.20;;
31347;SDS011;21711;49.708;18.568;2024-01-15T10:12:37;13.02;;;5.03;;
31347;SDS011;21711;49.708;18.568;2024-01-15T10:15:06;13.13;;;4.88;;
31347;SDS011;21711;49.708;18.568;2024-01-15T10:17:38;13.57;;;4.95;;
31347;SDS011;21711;49.708;18.568;2024-01-15T10:20:07;14.38;;;5.53;;
31347;SDS011;21711;49.708;18.568;2024-01-15T10:22:39;15.18;;;5.35;;
31347;SDS011;21711;49.708;18.568;2024-01-15T10:25:14;11.57;;;5.53;;
31347;SDS011;21711;49.708;18.568;2024-01-15T10:27:42;12.77;;;4.47;;
31347;SDS011;21711;49.708;18.568;2024-01-15T10:30:10;16.23;;;5.68;;
31347;SDS011;21711;49.708;18.568;2024-01-15T10:32:40;14.05;;;5.43;;
31347;SDS011;21711;49.708;18.568;2024-01-15T10:35:08;11.18;;;4.68;;
31347;SDS011;21711;49.708;18.568;2024-01-15T10:37:35;16.80;;;5.88;;
31347;SDS011;21711;49.708;18.568;2024-01-15T10:40:03;13.77;;;6.20;;
31347;SDS011;21711;49.708;18.568;2024-01-15T10:42:33;13.98;;;4.82;;
31347;SDS011;21711;49.708;18.568;2024-01-15T10:45:01;12.00;;;4.57;;
31347;SDS011;21711;49.708;18.568;2024-01-15T10:47:28;12.40;;;5.05;;
31347;SDS011;21711;49.708;18.568;2024-01-15T10:49:56;10.93;;;4.80;;
31347;SDS011;21711;49.708;18.568;2024-01-15T10:52:23;13.25;;;5.28;;
31347;SDS011;21711;49.708;18.568;2024-01-15T10:54:51;13.10;;;4.63;;
31347;SDS011;21711;49.708;18.568;2024-01-15T10:57:21;12.30;;;5.22;;
31347;SDS011;21711;49.708;18.568;2024-01-15T10:59:49;11.90;;;4.80;;
31347;SDS011;21711;49.708;18.568;2024-01-15T11:02:17;12.90;;;5.38;;
31347;SDS011;21711;49.708;18.568;2024-01-15T11:04:45;15.93;;;6.05;;
31347;SDS011;21711;49.708;18.568;2024-01-15T11:07:13;13.15;;;5.38;;
31347;SDS011;21711;49.708;18.568;2024-01-15T11:09:41;12.05;;;5.35;;
31347;SDS011;21711;49.708;18.568;2024-01-15T11:14:38;12.60;;;5.40;;
31347;SDS011;21711;49.708;18.568;2024-01-15T11:17:10;13.48;;;4.78;;
31347;SDS011;21711;49.708;18.568;2024-01-15T11:25:04;11.65;;;4.93;;
31347;SDS011;21711;49.708;18.568;2024-01-15T11:27:42;18.33;;;5.55;;
31347;SDS011;21711;49.708;18.568;2024-01-15T11:30:14;12.52;;;5.43;;
31347;SDS011;21711;49.708;18.568;2024-01-15T11:32:41;12.25;;;5.10;;
31347;SDS011;21711;49.708;18.568;2024-01-15T11:35:10;15.07;;;5.53;;
31347;SDS011;21711;49.708;18.568;2024-01-15T11:40:19;13.95;;;6.05;;
31347;SDS011;21711;49.708;18.568;2024-01-15T11:42:48;11.98;;;5.40;;
31347;SDS011;21711;49.708;18.568;2024-01-15T11:45:18;11.57;;;5.40;;
31347;SDS011;21711;49.708;18.568;2024-01-15T11:50:28;11.50;;;4.78;;
31347;SDS011;21711;49.708;18.568;2024-01-15T11:53:01;15.82;;;5.80;;
31347;SDS011;21711;49.708;18.568;2024-01-15T11:55:39;12.18;;;4.90;;
31347;SDS011;21711;49.708;18.568;2024-01-15T11:58:11;13.70;;;5.18;;
31347;SDS011;21711;49.708;18.568;2024-01-15T12:00:43;11.05;;;4.45;;
31347;SDS011;21711;49.708;18.568;2024-01-15T12:03:13;13.07;;;5.63;;
31347;SDS011;21711;49.708;18.568;2024-01-15T12:05:42;13.95;;;4.63;;
31347;SDS011;21711;49.708;18.568;2024-01-15T12:08:09;9.88;;;4.25;;
31347;SDS011;21711;49.708;18.568;2024-01-15T12:10:38;11.52;;;4.45;;
31347;SDS011;21711;49.708;18.568;2024-01-15T12:15:39;10.88;;;4.90;;
31347;SDS011;21711;49.708;18.568;2024-01-15T12:18:12;11.25;;;4.18;;
31347;SDS011;21711;49.708;18.568;2024-01-15T12:23:10;9.55;;;3.67;;
31347;SDS011;21711;49.708;18.568;2024-01-15T12:25:38;12.38;;;4.32;;
31347;SDS011;21711;49.708;18.568;2024-01-15T12:28:06;9.18;;;3.72;;
31347;SDS011;21711;49.708;18.568;2024-01-15T12:30:34;8.70;;;4.03;;
31347;SDS011;21711;49.708;18.568;2024-01-15T12:33:04;10.50;;;4.03;;
31347;SDS011;21711;49.708;18.568;2024-01-15T12:35:33;11.50;;;3.40;;
31347;SDS011;21711;49.708;18.568;2024-01-15T12:38:01;8.73;;;3.38;;
31347;SDS011;21711;49.708;18.568;2024-01-15T12:40:32;9.23;;;3.75;;
31347;SDS011;21711;49.708;18.568;2024-01-15T12:43:02;12.00;;;3.47;;
31347;SDS011;21711;49.708;18.568;2024-01-15T12:45:32;10.15;;;4.03;;
31347;SDS011;21711;49.708;18.568;2024-01-15T12:48:02;11.07;;;3.53;;
31347;SDS011;21711;49.708;18.568;2024-01-15T12:50:31;10.25;;;4.53;;
31347;SDS011;21711;49.708;18.568;2024-01-15T12:55:29;11.48;;;3.38;;
31347;SDS011;21711;49.708;18.568;2024-01-15T12:57:56;7.72;;;3.20;;
31347;SDS011;21711;49.708;18.568;2024-01-15T13:00:24;12.93;;;5.25;;
31347;SDS011;21711;49.708;18.568;2024-01-15T13:02:53;10.20;;;3.95;;
31347;SDS011;21711;49.708;18.568;2024-01-15T13:05:21;13.20;;;5.13;;
31347;SDS011;21711;49.708;18.568;2024-01-15T13:07:51;11.20;;;4.65;;
31347;SDS011;21711;49.708;18.568;2024-01-15T13:10:18;7.25;;;3.70;;
31347;SDS011;21711;49.708;18.568;2024-01-15T13:12:45;9.95;;;4.32;;
31347;SDS011;21711;49.708;18.568;2024-01-15T13:15:13;9.75;;;3.88;;
31347;SDS011;21711;49.708;18.568;2024-01-15T13:17:41;12.68;;;4.13;;
31347;SDS011;21711;49.708;18.568;2024-01-15T13:20:10;9.55;;;4.00;;
31347;SDS011;21711;49.708;18.568;2024-01-15T13:22:39;12.15;;;4.40;;
31347;SDS011;21711;49.708;18.568;2024-01-15T13:25:11;11.18;;;4.13;;
31347;SDS011;21711;49.708;18.568;2024-01-15T13:27:38;7.45;;;3.42;;
31347;SDS011;21711;49.708;18.568;2024-01-15T13:30:08;8.45;;;3.85;;
31347;SDS011;21711;49.708;18.568;2024-01-15T13:32:39;9.30;;;4.05;;
31347;SDS011;21711;49.708;18.568;2024-01-15T13:35:07;11.23;;;4.35;;
31347;SDS011;21711;49.708;18.568;2024-01-15T13:37:36;8.03;;;3.67;;
31347;SDS011;21711;49.708;18.568;2024-01-15T13:40:05;8.45;;;3.15;;
31347;SDS011;21711;49.708;18.568;2024-01-15T13:42:34;9.65;;;3.97;;
31347;SDS011;21711;49.708;18.568;2024-01-15T13:45:06;10.38;;;3.45;;
31347;SDS011;21711;49.708;18.568;2024-01-15T13:47:34;16.38;;;6.38;;
31347;SDS011;21711;49.708;18.568;2024-01-15T13:50:02;15.52;;;5.97;;
31347;SDS011;21711;49.708;18.568;2024-01-15T13:52:30;10.07;;;4.20;;
31347;SDS011;21711;49.708;18.568;2024-01-15T13:54:57;9.95;;;3.67;;
31347;SDS011;21711;49.708;18.568;2024-01-15T13:57:25;12.85;;;4.88;;
31347;SDS011;21711;49.708;18.568;2024-01-15T13:59:52;8.82;;;3.53;;
31347;SDS011;21711;49.708;18.568;2024-01-15T14:02:20;10.45;;;4.05;;
31347;SDS011;21711;49.708;18.568;2024-01-15T14:04:50;10.68;;;4.13;;
31347;SDS011;21711;49.708;18.568;2024-01-15T14:07:17;8.75;;;3.33;;
31347;SDS011;21711;49.708;18.568;2024-01-15T14:09:44;13.77;;;5.70;;
31347;SDS011;21711;49.708;18.568;2024-01-15T14:12:13;12.30;;;4.65;;
31347;SDS011;21711;49.708;18.568;2024-01-15T14:14:40;15.98;;;4.55;;
31347;SDS011;21711;49.708;18.568;2024-01-15T14:17:07;12.63;;;4.55;;
31347;SDS011;21711;49.708;18.568;2024-01-15T14:19:35;38.42;;;10.15;;
31347;SDS011;21711;49.708;18.568;2024-01-15T14:22:03;9.35;;;3.78;;
31347;SDS011;21711;49.708;18.568;2024-01-15T14:24:30;17.40;;;6.85;;
31347;SDS011;21711;49.708;18.568;2024-01-15T14:26:58;25.67;;;9.90;;
31347;SDS011;21711;49.708;18.568;2024-01-15T14:29:25;22.92;;;7.55;;
31347;SDS011;21711;49.708;18.568;2024-01-15T14:31:53;27.90;;;9.27;;
31347;SDS011;21711;49.708;18.568;2024-01-15T14:34:22;33.15;;;10.27;;
31347;SDS011;21711;49.708;18.568;2024-01-15T14:36:53;17.33;;;5.87;;
31347;SDS011;21711;49.708;18.568;2024-01-15T14:39:21;11.52;;;4.05;;
31347;SDS011;21711;49.708;18.568;2024-01-15T14:41:50;23.25;;;7.25;;
31347;SDS011;21711;49.708;18.568;2024-01-15T14:44:18;18.00;;;6.90;;
31347;SDS011;21711;49.708;18.568;2024-01-15T14:46:45;15.85;;;6.22;;
31347;SDS011;21711;49.708;18.568;2024-01-15T14:49:13;17.90;;;6.82;;
31347;SDS011;21711;49.708;18.568;2024-01-15T14:51:41;12.80;;;4.13;;
31347;SDS011;21711;49.708;18.568;2024-01-15T14:54:09;12.93;;;3.90;;
31347;SDS011;21711;49.708;18.568;2024-01-15T14:56:36;19.90;;;5.68;;
31347;SDS011;21711;49.708;18.568;2024-01-15T14:59:04;30.33;;;9.40;;